Time;durP1;ratioP1;P1;durP2;ratioP2;P2;SDS_P1;SDS_P2;PMS_P1;PMS_P2;Temp;Humidity;BMP_temperature;BMP_pressure;BME280_temperature;BME280_humidity;BME280_pressure;Samples;Min_cycle;Max_cycle;Signal;HPM_P1;HPM_P2
2022/05/27 00:01:53;;;;;;;18.95;3.83;;;13.80;99.90;;;;;;4976126;28;20459;-84
2022/05/27 00:04:19;;;;;;;22.50;4.65;;;13.80;99.90;;;;;;4975732;28;20047;-91
2022/05/27 00:06:44;;;;;;;15.93;4.05;;;13.70;99.90;;;;;;4958826;28;20058;-83
2022/05/27 00:09:10;;;;;;;21.00;3.05;;;13.70;99.90;;;;;;4945399;29;20098;-83
2022/05/27 00:11:36;;;;;;;14.60;3.15;;;13.70;99.90;;;;;;4945336;29;20067;-84
2022/05/27 00:14:02;;;;;;;20.42;2.83;;;13.60;99.90;;;;;;4946840;29;20107;-86
2022/05/27 00:16:28;;;;;;;17.30;3.22;;;13.60;99.90;;;;;;4966001;29;20053;-85
2022/05/27 00:18:55;;;;;;;16.20;3.38;;;13.60;99.90;;;;;;4932755;29;20059;-87
2022/05/27 00:21:21;;;;;;;19.10;3.78;;;13.50;99.90;;;;;;4967252;29;20071;-85
2022/05/27 00:23:48;;;;;;;14.10;3.95;;;13.50;99.90;;;;;;4942356;29;20087;-86
2022/05/27 00:26:13;;;;;;;18.27;4.35;;;13.50;99.90;;;;;;4938494;28;20054;-89
2022/05/27 00:28:39;;;;;;;17.10;3.05;;;13.50;99.90;;;;;;4940579;29;20134;-88
2022/05/27 00:31:06;;;;;;;16.20;3.72;;;13.50;99.90;;;;;;4957473;29;20055;-88
2022/05/27 00:33:33;;;;;;;18.63;3.03;;;13.40;99.90;;;;;;4939014;29;20448;-88
2022/05/27 00:35:59;;;;;;;19.02;4.18;;;13.40;99.90;;;;;;4955859;29;20047;-89
2022/05/27 00:38:25;;;;;;;16.00;3.65;;;13.30;99.90;;;;;;4941025;29;20059;-85
2022/05/27 00:40:53;;;;;;;12.30;3.38;;;13.30;99.90;;;;;;4939195;29;20414;-84
2022/05/27 00:43:19;;;;;;;16.02;3.15;;;13.30;99.90;;;;;;4938462;29;20055;-86
2022/05/27 00:46:03;;;;;;;16.05;2.88;;;13.30;99.90;;;;;;4945548;29;20071;-88
2022/05/27 00:48:32;;;;;;;19.63;3.67;;;13.20;99.90;;;;;;4962532;29;20058;-91
2022/05/27 00:50:59;;;;;;;21.85;3.83;;;13.20;99.90;;;;;;4967427;29;20047;-87
2022/05/27 00:53:35;;;;;;;14.45;3.55;;;13.20;99.90;;;;;;4966850;28;20083;-85
2022/05/27 00:56:04;;;;;;;14.45;2.60;;;13.20;99.90;;;;;;4943222;29;20055;-86
2022/05/27 00:58:59;;;;;;;12.60;3.20;;;13.20;99.90;;;;;;4956800;29;20051;-86
2022/05/27 01:01:26;;;;;;;12.53;3.67;;;13.20;99.90;;;;;;4957030;29;20051;-86
2022/05/27 01:03:55;;;;;;;13.30;2.72;;;13.20;99.90;;;;;;4941247;29;20047;-89
2022/05/27 01:06:21;;;;;;;23.42;2.95;;;13.20;99.90;;;;;;4939771;29;20059;-91
2022/05/27 01:08:47;;;;;;;16.15;3.35;;;13.20;99.90;;;;;;4966937;28;20062;-88
2022/05/27 01:11:16;;;;;;;13.93;2.63;;;13.20;99.90;;;;;;4960025;28;20059;-87
2022/05/27 01:13:41;;;;;;;18.67;3.53;;;13.20;99.90;;;;;;4976026;28;20070;-86
2022/05/27 01:16:31;;;;;;;16.42;2.40;;;13.20;99.90;;;;;;4977383;28;20046;-89
2022/05/27 01:22:30;;;;;;;14.70;2.72;;;13.10;99.90;;;;;;4966278;28;20081;-84
2022/05/27 01:25:20;;;;;;;9.57;2.15;;;13.10;99.90;;;;;;4981609;28;20046;-91
2022/05/27 01:28:04;;;;;;;12.98;2.75;;;13.10;99.90;;;;;;4985503;28;20074;-88
2022/05/27 01:30:30;;;;;;;18.75;3.55;;;13.00;99.90;;;;;;4967551;28;20082;-83
2022/05/27 01:33:34;;;;;;;19.73;2.65;;;13.00;99.90;;;;;;4967879;28;20051;-83
2022/05/27 01:36:30;;;;;;;7.00;2.08;;;13.00;99.90;;;;;;4898767;28;20061;-87
2022/05/27 01:39:32;;;;;;;10.35;2.47;;;13.00;99.90;;;;;;4967403;28;20051;-85
2022/05/27 01:42:42;;;;;;;13.20;2.55;;;13.00;99.90;;;;;;4872621;29;20059;-85
2022/05/27 01:45:22;;;;;;;13.05;3.30;;;13.00;99.90;;;;;;4948675;28;20058;-85
2022/05/27 01:47:55;;;;;;;15.23;2.47;;;12.90;99.90;;;;;;4980991;28;20061;-84
2022/05/27 01:50:26;;;;;;;10.63;2.15;;;12.90;99.90;;;;;;4983310;28;20051;-87
2022/05/27 01:53:09;;;;;;;9.63;1.80;;;12.90;99.90;;;;;;4959959;28;20054;-85
2022/05/27 01:55:54;;;;;;;9.13;2.10;;;12.80;99.90;;;;;;4959441;28;20061;-86
2022/05/27 01:58:25;;;;;;;16.23;3.10;;;12.80;99.90;;;;;;4977332;28;20078;-85
2022/05/27 02:00:52;;;;;;;15.38;4.28;;;12.80;99.90;;;;;;4961231;28;20051;-89
2022/05/27 02:03:33;;;;;;;9.27;2.28;;;12.80;99.90;;;;;;4965375;28;20463;-84
2022/05/27 02:06:06;;;;;;;6.45;2.00;;;12.80;99.90;;;;;;4959353;28;20057;-84
2022/05/27 02:08:58;;;;;;;11.55;2.75;;;12.80;99.90;;;;;;4966990;28;20061;-84
2022/05/27 02:11:24;;;;;;;15.48;2.83;;;12.80;99.90;;;;;;4939712;29;20047;-83
2022/05/27 02:14:03;;;;;;;13.15;1.92;;;12.70;99.90;;;;;;4939666;29;20102;-84
2022/05/27 02:16:37;;;;;;;13.68;2.25;;;12.70;99.90;;;;;;4940021;29;20134;-85
2022/05/27 02:19:16;;;;;;;12.43;1.90;;;12.70;99.90;;;;;;4958831;29;20542;-86
2022/05/27 02:21:51;;;;;;;16.40;2.72;;;12.70;99.90;;;;;;4960634;29;20691;-84
2022/05/27 02:24:37;;;;;;;14.70;2.63;;;12.60;99.90;;;;;;4963430;29;20395;-85
2022/05/27 02:27:12;;;;;;;10.75;2.22;;;12.60;99.90;;;;;;4947265;29;20074;-85
2022/05/27 02:29:41;;;;;;;10.50;2.63;;;12.60;99.90;;;;;;4951911;29;20050;-88
2022/05/27 02:32:18;;;;;;;18.25;2.72;;;12.60;99.90;;;;;;4960907;29;20070;-84
2022/05/27 02:35:09;;;;;;;18.23;4.28;;;12.60;99.90;;;;;;4940092;29;20058;-85
2022/05/27 02:37:40;;;;;;;17.73;2.90;;;12.60;99.90;;;;;;4956904;29;20491;-83
2022/05/27 02:40:27;;;;;;;15.68;3.17;;;12.50;99.90;;;;;;4939517;29;20134;-84
2022/05/27 02:43:17;;;;;;;17.73;4.40;;;12.50;99.90;;;;;;4957236;29;20043;-87
2022/05/27 02:46:02;;;;;;;10.88;3.38;;;12.50;99.90;;;;;;4956858;29;20066;-84
2022/05/27 02:48:36;;;;;;;;;;;12.40;99.90;;;;;;4957421;29;20047;-84
2022/05/27 02:51:19;;;;;;;10.25;2.55;;;12.40;99.90;;;;;;4957326;28;19933;-86
2022/05/27 02:54:01;;;;;;;17.05;2.97;;;12.30;99.90;;;;;;4962568;28;20051;-89
2022/05/27 02:56:33;;;;;;;11.48;3.05;;;12.30;99.90;;;;;;4958536;29;20106;-84
2022/05/27 02:58:59;;;;;;;14.18;3.00;;;12.30;99.90;;;;;;4938995;29;20063;-85
2022/05/27 03:01:25;;;;;;;22.92;4.03;;;12.30;99.90;;;;;;4939486;29;20047;-88
2022/05/27 03:03:51;;;;;;;15.68;3.63;;;12.30;99.90;;;;;;4956202;29;20055;-91
2022/05/27 03:06:26;;;;;;;11.27;2.92;;;12.30;99.90;;;;;;4939992;29;20134;-90
2022/05/27 03:08:51;;;;;;;;;;;12.30;99.90;;;;;;4973755;28;20070;-90
2022/05/27 03:11:37;;;;;;;12.80;2.67;;;12.30;99.90;;;;;;4980289;28;19955;-83
2022/05/27 03:14:12;;;;;;;10.15;2.75;;;12.30;99.90;;;;;;4968253;28;20117;-88
2022/05/27 03:16:58;;;;;;;9.15;2.42;;;12.30;99.90;;;;;;4969197;28;20118;-87
2022/05/27 03:19:36;;;;;;;15.90;2.63;;;12.30;99.90;;;;;;4981727;28;20055;-90
2022/05/27 03:22:13;;;;;;;15.95;3.60;;;12.30;99.90;;;;;;4975418;28;20051;-84
2022/05/27 03:24:57;;;;;;;14.00;3.20;;;12.40;99.90;;;;;;4974468;28;20492;-84
2022/05/27 03:27:39;;;;;;;14.37;2.60;;;12.40;99.90;;;;;;4958669;28;20057;-82
2022/05/27 03:30:13;;;;;;;12.10;2.88;;;12.40;99.90;;;;;;4974911;28;20051;-83
2022/05/27 03:32:59;;;;;;;12.63;2.72;;;12.40;99.90;;;;;;4975935;28;20057;-83
2022/05/27 03:35:53;;;;;;;14.07;3.22;;;12.50;99.90;;;;;;4960633;28;20054;-81
2022/05/27 03:38:33;;;;;;;15.77;2.92;;;12.50;99.90;;;;;;4961854;28;20154;-85
2022/05/27 03:41:15;;;;;;;12.55;2.70;;;12.50;99.90;;;;;;4984287;28;20103;-85
2022/05/27 03:43:43;;;;;;;16.60;3.67;;;12.50;99.90;;;;;;4979907;28;20105;-86
2022/05/27 03:46:09;;;;;;;22.98;3.20;;;12.50;99.90;;;;;;4981969;28;20054;-88
2022/05/27 03:48:37;;;;;;;17.17;2.78;;;12.60;99.90;;;;;;4980603;28;20078;-84
2022/05/27 03:51:28;;;;;;;12.00;3.08;;;12.60;99.90;;;;;;4978210;28;20136;-83
2022/05/27 03:54:03;;;;;;;15.05;3.42;;;12.60;99.90;;;;;;4976389;28;20051;-82
2022/05/27 03:56:32;;;;;;;18.20;3.85;;;12.60;99.90;;;;;;4959807;28;20142;-85
2022/05/27 03:58:58;;;;;;;18.38;3.47;;;12.50;99.90;;;;;;4962214;28;20089;-85
2022/05/27 04:01:26;;;;;;;18.73;3.85;;;12.50;99.90;;;;;;4959271;28;20076;-85
2022/05/27 04:03:53;;;;;;;11.68;2.80;;;12.50;99.90;;;;;;4959041;28;20470;-84
2022/05/27 04:06:19;;;;;;;14.95;2.97;;;12.50;99.90;;;;;;4975989;28;20451;-83
2022/05/27 04:08:45;;;;;;;18.15;3.67;;;12.50;99.90;;;;;;4975939;28;20094;-82
2022/05/27 04:11:11;;;;;;;20.83;3.75;;;12.60;99.90;;;;;;4977424;28;20118;-83
2022/05/27 04:13:36;;;;;;;11.45;2.97;;;12.60;99.90;;;;;;4965100;28;20406;-84
2022/05/27 04:16:02;;;;;;;21.58;4.63;;;12.60;99.90;;;;;;4975463;28;20069;-84
2022/05/27 04:18:28;;;;;;;16.65;3.45;;;12.60;99.90;;;;;;4957275;28;20054;-86
2022/05/27 04:20:54;;;;;;;17.08;3.78;;;12.60;99.90;;;;;;4958395;28;20042;-85
2022/05/27 04:23:20;;;;;;;17.70;3.15;;;12.60;99.90;;;;;;4974019;28;20098;-88
2022/05/27 04:25:47;;;;;;;18.05;3.15;;;12.70;99.90;;;;;;4974114;28;20126;-84
2022/05/27 04:28:13;;;;;;;18.88;3.70;;;12.60;99.90;;;;;;4974357;28;20053;-83
2022/05/27 04:30:39;;;;;;;24.55;4.18;;;12.60;99.90;;;;;;4974535;28;20049;-84
2022/05/27 04:33:05;;;;;;;18.38;4.40;;;12.60;99.90;;;;;;4948842;28;20577;-84
2022/05/27 04:35:31;;;;;;;18.58;3.42;;;12.60;99.90;;;;;;4976713;28;20063;-85
2022/05/27 04:37:57;;;;;;;19.60;3.70;;;12.60;99.90;;;;;;4975896;28;20499;-86
2022/05/27 04:40:23;;;;;;;19.13;3.80;;;12.70;99.90;;;;;;4980278;28;20058;-84
2022/05/27 04:42:49;;;;;;;24.13;4.35;;;12.70;99.90;;;;;;4979954;28;20089;-85
2022/05/27 04:45:15;;;;;;;18.80;3.60;;;12.70;99.90;;;;;;4962865;28;20149;-83
2022/05/27 04:47:40;;;;;;;14.70;3.33;;;12.80;99.90;;;;;;4942712;28;20638;-85
2022/05/27 04:50:10;;;;;;;23.80;4.00;;;12.80;99.90;;;;;;4975400;28;20055;-85
2022/05/27 04:52:36;;;;;;;18.30;4.30;;;12.80;99.90;;;;;;4960748;28;20058;-85
2022/05/27 04:55:07;;;;;;;23.40;3.63;;;12.80;99.90;;;;;;4976868;28;20050;-87
2022/05/27 04:57:54;;;;;;;22.65;3.90;;;12.80;99.90;;;;;;4976012;28;20062;-84
2022/05/27 05:00:34;;;;;;;15.98;3.83;;;12.80;99.90;;;;;;4958876;28;20065;-89
2022/05/27 05:03:00;;;;;;;19.05;4.18;;;12.90;99.90;;;;;;4961888;28;20051;-89
2022/05/27 05:05:28;;;;;;;16.77;3.38;;;12.90;99.90;;;;;;4976114;28;20050;-85
2022/05/27 05:08:00;;;;;;;17.67;3.20;;;12.90;99.90;;;;;;4955396;28;20083;-85
2022/05/27 05:10:27;;;;;;;17.58;3.55;;;12.80;99.90;;;;;;4956873;29;20070;-86
2022/05/27 05:12:53;;;;;;;17.27;3.17;;;12.90;99.90;;;;;;4942789;29;20090;-83
2022/05/27 05:15:23;;;;;;;13.13;2.60;;;12.90;99.90;;;;;;4937462;29;20055;-87
2022/05/27 05:17:50;;;;;;;25.42;4.47;;;12.90;99.90;;;;;;4937748;29;20055;-82
2022/05/27 05:20:19;;;;;;;21.00;4.93;;;12.80;99.90;;;;;;4937295;29;20043;-84
2022/05/27 05:22:45;;;;;;;18.50;3.30;;;12.80;99.90;;;;;;4954160;29;20569;-84
2022/05/27 05:25:12;;;;;;;17.65;3.63;;;12.80;99.90;;;;;;4936867;29;20136;-86
2022/05/27 05:27:39;;;;;;;17.40;3.53;;;12.80;99.90;;;;;;4937522;29;20090;-89
2022/05/27 05:30:08;;;;;;;20.98;4.30;;;12.80;99.90;;;;;;4937601;29;20094;-85
2022/05/27 05:32:34;;;;;;;17.05;2.88;;;12.80;99.90;;;;;;4955607;29;20043;-82
2022/05/27 05:35:00;;;;;;;23.63;3.40;;;12.90;99.90;;;;;;4961552;29;20051;-83
2022/05/27 05:37:27;;;;;;;14.27;3.65;;;13.00;99.90;;;;;;4957553;29;20460;-84
2022/05/27 05:39:53;;;;;;;17.02;3.38;;;13.00;99.90;;;;;;4942118;29;20480;-84
2022/05/27 05:42:19;;;;;;;17.85;3.75;;;13.10;99.90;;;;;;4938040;29;20190;-82
2022/05/27 05:44:45;;;;;;;15.05;3.13;;;13.20;99.90;;;;;;4953785;29;20057;-83
2022/05/27 05:47:12;;;;;;;16.15;3.85;;;13.10;99.90;;;;;;4938068;29;20047;-91
2022/05/27 05:49:38;;;;;;;16.50;2.80;;;13.10;99.90;;;;;;4956399;29;20043;-85
2022/05/27 05:52:05;;;;;;;11.90;2.88;;;13.10;99.90;;;;;;4956071;29;20059;-89
2022/05/27 05:54:31;;;;;;;12.55;3.72;;;13.10;99.90;;;;;;4957297;28;20059;-87
2022/05/27 05:57:01;;;;;;;18.10;3.90;;;13.00;99.90;;;;;;4954228;29;20053;-86
2022/05/27 05:59:32;;;;;;;13.23;2.88;;;13.00;99.90;;;;;;4937502;29;20051;-83
2022/05/27 06:02:00;;;;;;;15.70;3.05;;;13.00;99.90;;;;;;4954352;29;20047;-86
2022/05/27 06:04:27;;;;;;;21.48;3.72;;;13.10;99.90;;;;;;4937688;29;20069;-86
2022/05/27 06:06:53;;;;;;;15.52;3.42;;;13.20;99.90;;;;;;4925184;29;20587;-83
2022/05/27 06:09:22;;;;;;;17.95;3.20;;;13.20;99.90;;;;;;4971724;28;20121;-85
2022/05/27 06:11:48;;;;;;;19.73;3.50;;;13.20;99.90;;;;;;4942692;28;20085;-90
2022/05/27 06:14:14;;;;;;;14.50;3.50;;;13.30;99.90;;;;;;4977353;28;20059;-88
2022/05/27 06:16:40;;;;;;;26.02;4.28;;;13.40;99.90;;;;;;4979149;28;20066;-91
2022/05/27 06:19:06;;;;;;;18.27;4.38;;;13.30;99.90;;;;;;4962090;28;20050;-84
2022/05/27 06:21:32;;;;;;;24.83;3.55;;;13.50;99.90;;;;;;4942836;28;20427;-89
2022/05/27 06:23:58;;;;;;;17.13;3.67;;;13.70;99.90;;;;;;4958215;28;20050;-86
2022/05/27 06:26:24;;;;;;;16.13;3.67;;;13.80;99.90;;;;;;4979251;28;20046;-85
2022/05/27 06:34:25;;;;;;;18.37;3.43;;;13.70;99.90;;;;;;4978098;28;20141;-86
2022/05/27 06:36:55;;;;;;;18.10;4.38;;;13.80;99.90;;;;;;4963449;28;20066;-89
2022/05/27 06:39:22;;;;;;;18.13;3.35;;;13.90;99.90;;;;;;4981680;28;20058;-86
2022/05/27 06:41:48;;;;;;;18.75;3.33;;;14.00;99.90;;;;;;4944088;28;20082;-87
2022/05/27 06:44:14;;;;;;;16.60;3.72;;;14.10;99.90;;;;;;4959785;28;20077;-90
2022/05/27 06:46:40;;;;;;;20.88;4.00;;;14.00;99.90;;;;;;4976446;28;20050;-87
2022/05/27 06:49:06;;;;;;;21.48;3.30;;;14.20;99.90;;;;;;4977039;28;20051;-85
2022/05/27 06:51:36;;;;;;;22.35;4.53;;;14.20;99.90;;;;;;4959880;28;20497;-87
2022/05/27 06:54:05;;;;;;;21.42;3.88;;;14.10;99.90;;;;;;4979036;28;20082;-86
2022/05/27 06:56:35;;;;;;;23.60;4.15;;;14.20;99.90;;;;;;4987319;28;20109;-84
2022/05/27 06:59:03;;;;;;;18.67;4.10;;;14.30;99.90;;;;;;4985615;28;20459;-86
2022/05/27 07:01:30;;;;;;;17.33;3.25;;;14.50;99.90;;;;;;4966252;28;20058;-88
2022/05/27 07:03:57;;;;;;;20.98;3.65;;;14.80;99.90;;;;;;4966455;28;20054;-87
2022/05/27 07:06:27;;;;;;;14.77;3.58;;;14.80;99.90;;;;;;4982344;28;20066;-89
2022/05/27 07:08:52;;;;;;;11.73;3.47;;;14.70;99.90;;;;;;4978233;28;20422;-89
2022/05/27 07:11:18;;;;;;;25.95;4.10;;;14.50;99.90;;;;;;4943348;28;20043;-87
2022/05/27 07:13:44;;;;;;;16.05;3.53;;;14.20;99.90;;;;;;4943874;28;20467;-85
2022/05/27 07:16:10;;;;;;;15.95;3.70;;;14.10;99.90;;;;;;4959389;28;20530;-88
2022/05/27 07:18:36;;;;;;;16.73;3.42;;;14.00;99.90;;;;;;4959429;28;20145;-89
2022/05/27 07:21:05;;;;;;;18.98;3.47;;;14.10;99.90;;;;;;4958257;28;20117;-85
2022/05/27 07:23:31;;;;;;;19.92;4.25;;;14.00;99.90;;;;;;4978597;28;20577;-85
2022/05/27 07:25:58;;;;;;;17.40;4.45;;;14.10;99.90;;;;;;4979978;28;20046;-85
2022/05/27 07:28:24;;;;;;;14.13;3.55;;;14.50;99.90;;;;;;4981269;28;20066;-87
2022/05/27 07:30:51;;;;;;;20.77;3.35;;;14.50;99.90;;;;;;4948712;28;20058;-85
2022/05/27 07:33:17;;;;;;;21.77;4.47;;;14.50;99.90;;;;;;4965030;28;20090;-86
2022/05/27 07:35:43;;;;;;;18.35;4.80;;;14.60;99.90;;;;;;4967218;28;20058;-84
2022/05/27 07:38:09;;;;;;;19.23;3.60;;;14.80;99.90;;;;;;4984951;28;20507;-88
2022/05/27 07:40:35;;;;;;;15.35;3.25;;;14.60;99.90;;;;;;4986219;28;20411;-86
2022/05/27 07:43:01;;;;;;;18.02;3.13;;;14.70;99.90;;;;;;4977313;28;20054;-86
2022/05/27 07:45:27;;;;;;;16.17;3.42;;;14.80;99.90;;;;;;4943946;28;20535;-88
2022/05/27 07:47:54;;;;;;;24.88;3.97;;;14.70;99.90;;;;;;4960089;28;20093;-86
2022/05/27 07:50:23;;;;;;;12.65;3.30;;;14.90;99.90;;;;;;4942538;28;20053;-86
2022/05/27 07:52:50;;;;;;;19.55;3.55;;;14.90;99.90;;;;;;4958593;28;20397;-84
2022/05/27 07:55:16;;;;;;;13.75;4.18;;;15.10;99.90;;;;;;4976506;28;20410;-85
2022/05/27 07:57:44;;;;;;;22.23;3.45;;;15.30;99.90;;;;;;4960652;28;20129;-86
2022/05/27 08:00:18;;;;;;;17.02;4.45;;;15.70;99.90;;;;;;4942093;28;20161;-87
2022/05/27 08:02:44;;;;;;;17.00;3.80;;;16.00;99.90;;;;;;4961201;28;20471;-88
2022/05/27 08:05:13;;;;;;;16.52;3.33;;;16.10;99.90;;;;;;4961513;28;20066;-86
2022/05/27 08:07:39;;;;;;;18.70;3.53;;;16.00;99.90;;;;;;4946240;28;20043;-86
2022/05/27 08:10:06;;;;;;;18.55;3.35;;;15.80;99.90;;;;;;4979137;28;20062;-85
2022/05/27 08:12:32;;;;;;;21.40;4.88;;;15.70;99.90;;;;;;4947315;28;20066;-85
2022/05/27 08:14:59;;;;;;;12.73;3.45;;;15.50;99.90;;;;;;4966185;28;20058;-86
2022/05/27 08:17:25;;;;;;;14.25;3.17;;;15.10;99.90;;;;;;4958724;28;20051;-85
2022/05/27 08:19:52;;;;;;;18.17;3.67;;;15.00;99.90;;;;;;4975401;28;20054;-88
2022/05/27 08:22:19;;;;;;;28.65;4.90;;;15.30;99.90;;;;;;4959098;28;20133;-85
2022/05/27 08:24:45;;;;;;;19.60;4.32;;;15.30;99.90;;;;;;4944570;28;20097;-87
2022/05/27 08:27:11;;;;;;;19.85;4.05;;;15.10;99.90;;;;;;4964586;28;20388;-87
2022/05/27 08:29:37;;;;;;;22.65;4.03;;;15.00;99.90;;;;;;4957423;28;20518;-86
2022/05/27 08:32:04;;;;;;;17.67;4.30;;;14.80;99.90;;;;;;4958176;28;20531;-88
2022/05/27 08:40:01;;;;;;;20.50;4.75;;;15.20;99.90;;;;;;4958401;28;20593;-84
2022/05/27 08:42:37;;;;;;;15.82;3.80;;;15.30;99.90;;;;;;4958306;28;20407;-87
2022/05/27 08:45:03;;;;;;;21.40;4.60;;;15.40;99.90;;;;;;4977839;28;20046;-87
2022/05/27 08:47:37;;;;;;;21.58;4.55;;;15.50;99.90;;;;;;4959894;28;20058;-88
2022/05/27 08:50:03;;;;;;;17.23;3.88;;;15.40;99.90;;;;;;4958724;28;20070;-88
2022/05/27 08:52:45;;;;;;;13.75;3.55;;;15.50;99.90;;;;;;4977680;28;20174;-84
2022/05/27 09:01:14;;;;;;;15.85;3.88;;;15.80;99.90;;;;;;4976124;28;20047;-90
2022/05/27 09:04:07;;;;;;;21.88;5.28;;;15.70;99.90;;;;;;4978635;28;20051;-86
2022/05/27 09:07:18;;;;;;;17.05;3.90;;;16.10;99.90;;;;;;4960116;28;20109;-86
2022/05/27 09:10:04;;;;;;;22.02;3.85;;;16.30;99.90;;;;;;4958544;28;20043;-86
2022/05/27 09:12:52;;;;;;;22.60;4.45;;;16.10;99.80;;;;;;4956406;28;20046;-86
2022/05/27 09:15:37;;;;;;;20.88;5.18;;;16.30;99.90;;;;;;4957228;28;20526;-88
2022/05/27 09:18:19;;;;;;;22.60;3.83;;;16.50;99.90;;;;;;4974673;28;20125;-85
2022/05/27 09:21:03;;;;;;;15.52;3.47;;;16.50;99.90;;;;;;4956253;28;20054;-84
2022/05/27 09:23:48;;;;;;;17.98;3.40;;;16.30;98.70;;;;;;4974349;28;20566;-87
2022/05/27 09:26:29;;;;;;;16.45;4.68;;;16.10;99.80;;;;;;4974928;28;20413;-88
2022/05/27 09:29:23;;;;;;;22.90;5.35;;;16.10;99.90;;;;;;4973249;28;20061;-87
2022/05/27 09:31:55;;;;;;;17.77;3.95;;;16.40;99.90;;;;;;4958158;28;20094;-87
2022/05/27 09:34:26;;;;;;;22.80;4.05;;;16.50;99.80;;;;;;4957751;28;20495;-88
2022/05/27 09:36:55;;;;;;;26.95;4.85;;;16.70;99.90;;;;;;4975567;28;20051;-85
2022/05/27 09:39:24;;;;;;;20.08;3.28;;;16.60;99.90;;;;;;4979672;28;20057;-87
2022/05/27 09:42:27;;;;;;;17.83;4.88;;;16.30;99.90;;;;;;4962467;28;20058;-88
2022/05/27 09:44:56;;;;;;;14.82;3.70;;;16.40;99.90;;;;;;4981835;28;20050;-88
2022/05/27 09:47:28;;;;;;;12.50;3.13;;;16.30;99.90;;;;;;4983057;28;20106;-85
2022/05/27 09:49:58;;;;;;;21.42;5.35;;;16.60;99.90;;;;;;4984597;28;20053;-86
2022/05/27 09:52:27;;;;;;;19.00;4.25;;;16.60;98.90;;;;;;4982636;28;20050;-89
2022/05/27 09:54:59;;;;;;;21.23;3.50;;;16.50;99.50;;;;;;4983163;28;20050;-87
2022/05/27 09:57:35;;;;;;;16.70;3.80;;;16.50;99.80;;;;;;4986274;28;20106;-85
2022/05/27 10:00:04;;;;;;;18.98;3.83;;;16.60;99.90;;;;;;4962756;28;20063;-86
2022/05/27 10:02:38;;;;;;;14.63;3.60;;;16.80;99.70;;;;;;4962292;28;20117;-87
2022/05/27 10:05:17;;;;;;;14.00;3.45;;;16.60;98.70;;;;;;4977932;28;20051;-87
2022/05/27 10:07:53;;;;;;;15.25;3.10;;;16.60;99.80;;;;;;4962848;28;20078;-88
2022/05/27 10:10:34;;;;;;;15.05;3.05;;;16.40;99.90;;;;;;4945144;28;20058;-86
2022/05/27 10:13:30;;;;;;;20.73;3.90;;;16.50;99.10;;;;;;4978317;28;20060;-88
2022/05/27 10:16:30;;;;;;;17.70;3.70;;;16.40;99.70;;;;;;4977379;28;20133;-88
2022/05/27 10:19:24;;;;;;;18.25;3.30;;;16.30;99.90;;;;;;4955267;28;20114;-85
2022/05/27 10:21:59;;;;;;;16.08;3.38;;;16.20;99.90;;;;;;4961213;28;20372;-86
2022/05/27 10:24:27;;;;;;;19.52;3.75;;;16.20;99.90;;;;;;4944268;28;20062;-85
2022/05/27 10:27:05;;;;;;;14.95;3.40;;;16.10;99.90;;;;;;4962556;28;20106;-88
2022/05/27 10:29:33;;;;;;;15.90;3.22;;;16.30;99.90;;;;;;4966822;28;20051;-88
2022/05/27 10:32:01;;;;;;;24.63;4.50;;;16.50;99.90;;;;;;4968601;28;20046;-88
2022/05/27 10:34:45;;;;;;;17.40;3.90;;;16.50;99.90;;;;;;4960665;28;20392;-88
2022/05/27 10:37:28;;;;;;;17.10;3.63;;;16.60;99.30;;;;;;4947521;28;20054;-91
2022/05/27 10:40:03;;;;;;;16.85;3.67;;;16.50;99.90;;;;;;4980815;28;20046;-87
2022/05/27 10:42:45;;;;;;;;;;;16.50;99.80;;;;;;4966320;28;20379;-87
2022/05/27 10:45:19;;;;;;;13.60;3.75;;;16.10;97.70;;;;;;4952877;28;19922;-90
2022/05/27 10:48:05;;;;;;;14.30;3.13;;;16.20;99.70;;;;;;4966499;28;20089;-87
2022/05/27 10:50:43;;;;;;;16.13;3.30;;;16.60;99.90;;;;;;4964629;28;20125;-92
2022/05/27 10:53:32;;;;;;;18.73;4.40;;;16.50;98.60;;;;;;4978262;28;20046;-87
2022/05/27 10:56:15;;;;;;;13.77;3.17;;;16.40;99.90;;;;;;4977444;28;20043;-87
2022/05/27 11:02:19;;;;;;;18.88;4.25;;;16.60;99.70;;;;;;4961834;28;20051;-88
2022/05/27 11:05:04;;;;;;;15.13;3.25;;;16.70;98.20;;;;;;4932444;28;20046;-89
2022/05/27 11:07:55;;;;;;;18.63;3.78;;;16.70;99.80;;;;;;4943026;28;20058;-85
2022/05/27 11:10:27;;;;;;;18.92;3.72;;;16.50;99.10;;;;;;4962465;28;20141;-88
2022/05/27 11:16:25;;;;;;;19.02;3.38;;;16.60;99.80;;;;;;4981232;28;20063;-84
2022/05/27 11:18:54;;;;;;;16.95;3.15;;;17.00;99.00;;;;;;4983290;28;20084;-86
2022/05/27 11:21:32;;;;;;;12.43;3.25;;;17.20;98.80;;;;;;4978269;28;20054;-88
2022/05/27 11:24:36;;;;;;;16.80;4.05;;;17.20;98.60;;;;;;4980828;28;20503;-86
2022/05/27 11:27:36;;;;;;;14.15;2.85;;;16.90;98.50;;;;;;4857898;29;20057;-86
2022/05/27 11:30:27;;;;;;;16.60;3.42;;;16.90;98.90;;;;;;4965256;28;20051;-86
2022/05/27 11:33:06;;;;;;;15.63;3.97;;;17.00;97.90;;;;;;4979882;28;20065;-87
2022/05/27 11:35:52;;;;;;;17.90;4.05;;;17.00;99.60;;;;;;4962864;28;20058;-85
2022/05/27 11:38:38;;;;;;;13.98;3.70;;;16.80;98.40;;;;;;4961201;28;20097;-87
2022/05/27 11:41:13;;;;;;;15.02;3.00;;;17.00;99.30;;;;;;4975950;28;20054;-84
2022/05/27 11:43:56;;;;;;;19.27;3.65;;;17.00;98.70;;;;;;4963534;28;20097;-86
2022/05/27 11:46:37;;;;;;;15.20;3.65;;;17.20;98.70;;;;;;4965547;28;20043;-85
2022/05/27 11:49:24;;;;;;;16.85;3.83;;;17.30;99.80;;;;;;4984714;28;20046;-86
2022/05/27 11:52:05;;;;;;;21.25;4.35;;;17.50;99.20;;;;;;4964414;28;20114;-89
2022/05/27 11:54:46;;;;;;;19.92;3.30;;;17.40;99.20;;;;;;4958952;28;20050;-88
2022/05/27 11:57:35;;;;;;;12.88;3.83;;;17.50;98.40;;;;;;4962222;28;20075;-87
2022/05/27 12:00:16;;;;;;;16.67;3.55;;;17.80;97.20;;;;;;4975372;28;20130;-87
2022/05/27 12:03:15;;;;;;;15.82;4.05;;;17.60;97.90;;;;;;4958364;28;20046;-87
2022/05/27 12:05:47;;;;;;;17.40;3.58;;;17.60;97.90;;;;;;4969257;28;20415;-91
2022/05/27 12:08:40;;;;;;;20.48;3.60;;;17.40;97.50;;;;;;4976230;28;20050;-88
2022/05/27 12:11:44;;;;;;;16.10;3.38;;;17.40;97.70;;;;;;4957885;28;20069;-86
2022/05/27 12:14:16;;;;;;;16.60;3.50;;;17.40;98.40;;;;;;4956690;28;20055;-87
2022/05/27 12:16:48;;;;;;;17.27;4.15;;;17.30;98.80;;;;;;4958372;28;20047;-88
2022/05/27 12:19:18;;;;;;;19.40;3.70;;;17.30;99.30;;;;;;4959062;28;20707;-87
2022/05/27 12:22:06;;;;;;;16.13;3.38;;;17.50;99.50;;;;;;4977941;28;20139;-85
2022/05/27 12:24:45;;;;;;;21.35;4.38;;;17.60;98.80;;;;;;4961923;28;20063;-87
2022/05/27 12:27:14;;;;;;;14.50;3.88;;;18.10;98.80;;;;;;4982899;28;20078;-85
2022/05/27 12:29:42;;;;;;;16.92;4.40;;;17.80;98.40;;;;;;4981288;28;20050;-87
2022/05/27 12:32:10;;;;;;;19.98;4.80;;;17.70;98.30;;;;;;4952302;28;20055;-86
2022/05/27 12:34:42;;;;;;;15.10;4.43;;;17.70;99.10;;;;;;4966751;28;20411;-86
2022/05/27 12:37:20;;;;;;;17.40;4.05;;;17.90;98.90;;;;;;4983388;28;20077;-84
2022/05/27 12:39:49;;;;;;;16.70;3.95;;;17.80;98.90;;;;;;4980892;28;20077;-87
2022/05/27 12:42:31;;;;;;;16.88;3.22;;;18.10;98.70;;;;;;4978568;28;20134;-89
2022/05/27 12:45:22;;;;;;;13.18;3.65;;;18.10;98.10;;;;;;4960737;28;20054;-86
2022/05/27 12:47:53;;;;;;;13.35;3.10;;;17.80;98.10;;;;;;4937798;28;20043;-86
2022/05/27 12:50:39;;;;;;;19.00;4.10;;;17.60;97.90;;;;;;4978173;28;20410;-87
2022/05/27 12:53:18;;;;;;;16.15;3.70;;;17.70;97.40;;;;;;4956988;28;20047;-87
2022/05/27 13:01:42;;;;;;;20.35;4.03;;;17.40;98.50;;;;;;4976235;28;20515;-88
2022/05/27 13:04:57;;;;;;;14.48;3.47;;;17.50;98.40;;;;;;4958798;28;20491;-87
2022/05/27 13:07:35;;;;;;;13.25;3.83;;;17.30;98.30;;;;;;4930487;28;20133;-85
2022/05/27 13:10:17;;;;;;;20.02;3.85;;;17.30;99.10;;;;;;4967517;28;20050;-87
2022/05/27 13:12:49;;;;;;;15.45;3.20;;;17.30;99.90;;;;;;4967183;28;20093;-86
2022/05/27 13:15:29;;;;;;;15.63;3.20;;;17.40;98.50;;;;;;4968155;28;20057;-86
2022/05/27 13:18:22;;;;;;;13.43;3.33;;;17.50;97.10;;;;;;4984842;28;20051;-85
2022/05/27 13:21:06;;;;;;;18.00;3.55;;;17.10;98.70;;;;;;4963416;28;20090;-85
2022/05/27 13:23:34;;;;;;;13.60;3.00;;;17.40;99.90;;;;;;4980911;28;20053;-87
2022/05/27 13:26:05;;;;;;;18.00;3.63;;;18.10;97.90;;;;;;4973585;28;20055;-87
2022/05/27 13:28:31;;;;;;;16.45;4.00;;;18.30;96.70;;;;;;4977358;28;20055;-85
2022/05/27 13:31:12;;;;;;;16.88;3.92;;;18.10;96.10;;;;;;4975910;28;20055;-87
2022/05/27 13:33:49;;;;;;;18.42;3.33;;;18.10;98.10;;;;;;4956858;28;20061;-87
2022/05/27 13:36:27;;;;;;;13.40;3.83;;;18.30;97.10;;;;;;4975598;28;20105;-86
2022/05/27 13:39:07;;;;;;;15.35;4.63;;;18.30;96.50;;;;;;4928076;28;20473;-86
2022/05/27 13:41:46;;;;;;;18.10;4.15;;;17.90;97.20;;;;;;4959836;28;20090;-88
2022/05/27 13:44:20;;;;;;;16.15;3.75;;;18.10;98.20;;;;;;4960221;28;20145;-87
2022/05/27 13:46:54;;;;;;;19.77;4.55;;;18.10;98.00;;;;;;4976877;28;20046;-85